Time;durP1;ratioP1;P1;durP2;ratioP2;P2;SDS_P1;SDS_P2;PMS_P1;PMS_P2;Temp;Humidity;BMP_temperature;BMP_pressure;BME280_temperature;BME280_humidity;BME280_pressure;Samples;Min_cycle;Max_cycle;Signal;HPM_P1;HPM_P2
2022/05/02 00:01:42;;;;;;;6.13;4.50;;;;;;;13.00;96.36;99656.88;5027573;28;20551;-54
2022/05/02 00:04:09;;;;;;;7.00;4.57;;;;;;;13.06;97.30;99664.50;5027280;28;20419;-53
2022/05/02 00:06:36;;;;;;;8.10;5.70;;;;;;;13.14;97.62;99669.47;5027230;28;20721;-53
2022/05/02 00:09:03;;;;;;;6.53;5.37;;;;;;;13.08;98.43;99662.69;5027159;28;20203;-53
2022/05/02 00:11:31;;;;;;;5.50;5.10;;;;;;;13.02;99.06;99664.66;5027119;28;20202;-53
2022/05/02 00:13:58;;;;;;;5.70;5.20;;;;;;;12.97;99.74;99662.25;5027526;28;20194;-54
2022/05/02 00:16:25;;;;;;;8.03;5.57;;;;;;;12.90;99.43;99673.75;5028010;28;20251;-54
2022/05/02 00:18:52;;;;;;;5.63;5.10;;;;;;;12.84;100.00;99663.59;5026943;28;20198;-55
2022/05/02 00:21:19;;;;;;;5.73;5.23;;;;;;;12.87;99.86;99666.06;5027061;28;20600;-55
2022/05/02 00:23:46;;;;;;;6.03;5.53;;;;;;;12.81;100.00;99657.63;5026909;28;20197;-56
2022/05/02 00:26:13;;;;;;;7.20;5.50;;;;;;;12.85;99.72;99664.44;5022187;28;20225;-56
2022/05/02 00:28:41;;;;;;;5.67;5.27;;;;;;;12.84;100.00;99657.50;5016810;28;20305;-56
2022/05/02 00:31:08;;;;;;;6.10;5.23;;;;;;;12.86;100.00;99660.91;5015300;28;20198;-54
2022/05/02 00:33:35;;;;;;;6.67;5.60;;;;;;;12.87;99.68;99649.56;5016530;28;20671;-54
2022/05/02 00:36:02;;;;;;;5.20;4.90;;;;;;;12.87;99.85;99642.59;5017368;28;20214;-54
2022/05/02 00:38:28;;;;;;;7.10;4.97;;;;;;;12.87;100.00;99645.22;5015434;28;20194;-55
2022/05/02 00:40:57;;;;;;;6.40;4.87;;;;;;;12.86;100.00;99647.91;5019842;28;20195;-54
2022/05/02 00:43:23;;;;;;;5.50;5.20;;;;;;;12.91;99.70;99641.59;5021022;28;20204;-55
2022/05/02 00:45:52;;;;;;;5.90;5.40;;;;;;;12.94;99.56;99631.06;5013025;28;20204;-54
2022/05/02 00:48:20;;;;;;;5.10;4.63;;;;;;;12.90;99.69;99634.69;5010479;28;20208;-53
2022/05/02 00:50:47;;;;;;;5.93;5.43;;;;;;;12.76;99.83;99615.25;5010381;28;20220;-54
2022/05/02 00:53:15;;;;;;;6.17;5.73;;;;;;;12.73;99.75;99616.22;5010359;28;20660;-55
2022/05/02 00:55:44;;;;;;;5.93;5.53;;;;;;;12.90;99.46;99645.09;5010149;28;20232;-54
2022/05/02 00:58:14;;;;;;;6.27;5.53;;;;;;;12.90;99.13;99637.28;5010248;28;20205;-54
2022/05/02 01:00:42;;;;;;;8.23;6.33;;;;;;;12.88;99.01;99640.84;5010190;28;20209;-53
2022/05/02 01:03:12;;;;;;;6.47;5.90;;;;;;;13.00;98.34;99641.25;5010060;28;20198;-56
2022/05/02 01:07:08;;;;;;;6.70;6.10;;;;;;;12.95;98.30;99644.97;5010122;28;20204;-54
2022/05/02 01:08:29;;;;;;;6.60;5.90;;;;;;;12.86;98.79;99634.88;5009938;28;20205;-54
2022/05/02 01:10:57;;;;;;;7.63;6.20;;;;;;;12.82;99.40;99639.34;5010103;28;20228;-55
2022/05/02 01:13:36;;;;;;;10.13;6.13;;;;;;;12.72;99.00;99609.31;5010229;28;20202;-56
2022/05/02 01:16:09;;;;;;;8.27;5.97;;;;;;;12.85;98.95;99641.00;5010045;28;20601;-57
2022/05/02 01:18:38;;;;;;;7.00;6.17;;;;;;;12.79;99.80;99636.84;5010073;28;20198;-56
2022/05/02 01:21:10;;;;;;;6.80;6.33;;;;;;;12.86;98.96;99632.28;5010084;28;20204;-56
2022/05/02 01:23:37;;;;;;;6.70;6.03;;;;;;;12.89;98.20;99629.53;5009949;28;20747;-57
2022/05/02 01:26:04;;;;;;;7.90;7.20;;;;;;;12.80;98.44;99628.13;5009836;28;20236;-58
2022/05/02 01:28:31;;;;;;;7.30;6.60;;;;;;;12.67;98.25;99609.47;5009587;28;20204;-56
2022/05/02 01:30:58;;;;;;;7.73;7.00;;;;;;;12.82;97.88;99626.31;5009789;28;20204;-54
2022/05/02 01:33:24;;;;;;;8.97;6.90;;;;;;;12.68;98.89;99629.41;5009777;28;20202;-56
2022/05/02 01:35:51;;;;;;;7.53;6.93;;;;;;;12.65;99.53;99626.91;5009809;28;20271;-53
2022/05/02 01:38:20;;;;;;;8.07;7.23;;;;;;;12.64;99.42;99616.56;5009717;28;20229;-56
2022/05/02 01:40:47;;;;;;;8.43;7.63;;;;;;;12.66;99.28;99620.78;5009572;28;20202;-56
2022/05/02 01:43:13;;;;;;;7.80;7.10;;;;;;;12.55;99.83;99609.06;5009468;28;20206;-57
2022/05/02 01:45:41;;;;;;;7.43;6.93;;;;;;;12.52;100.00;99611.78;5009385;28;20234;-57
2022/05/02 01:48:08;;;;;;;8.43;7.53;;;;;;;12.54;99.56;99609.94;5009973;28;20578;-56
2022/05/02 01:50:35;;;;;;;8.33;7.63;;;;;;;12.48;100.00;99607.56;5009640;28;20202;-57
2022/05/02 01:53:02;;;;;;;8.00;7.20;;;;;;;12.44;100.00;99592.97;5009411;28;20233;-57
2022/05/02 01:55:31;;;;;;;7.90;7.20;;;;;;;12.47;100.00;99598.91;5009123;28;20222;-57
2022/05/02 01:57:58;;;;;;;8.97;7.70;;;;;;;12.39;100.00;99594.88;5009381;28;20206;-55
2022/05/02 02:00:25;;;;;;;8.33;7.53;;;;;;;12.22;100.00;99552.06;5009586;28;20297;-56
2022/05/02 02:02:52;;;;;;;8.17;7.47;;;;;;;12.43;100.00;99575.63;5009297;28;20205;-56
2022/05/02 02:08:03;;;;;;;8.40;7.60;;;;;;;12.47;99.93;99566.81;5009338;28;20289;-56
2022/05/02 02:10:31;;;;;;;8.57;7.00;;;;;;;12.36;100.00;99565.47;5009363;28;20210;-55
2022/05/02 02:12:58;;;;;;;8.27;7.67;;;;;;;12.34;100.00;99556.84;5009185;28;20202;-54
2022/05/02 02:15:25;;;;;;;8.50;7.70;;;;;;;12.36;100.00;99565.47;5009157;28;20222;-54
2022/05/02 02:17:52;;;;;;;9.20;8.20;;;;;;;12.34;100.00;99558.59;5009231;28;20596;-54
2022/05/02 02:20:19;;;;;;;9.00;8.30;;;;;;;12.35;100.00;99552.50;5009215;28;20198;-55
2022/05/02 02:22:46;;;;;;;8.20;7.50;;;;;;;12.41;100.00;99551.44;5008818;28;20194;-55
2022/05/02 02:25:13;;;;;;;10.00;9.00;;;;;;;12.10;100.00;99510.88;5009098;28;20615;-56
2022/05/02 02:27:42;;;;;;;11.83;9.57;;;;;;;12.26;100.00;99538.06;5009167;28;20589;-55
2022/05/02 02:30:10;;;;;;;9.57;8.67;;;;;;;12.19;100.00;99541.75;5009274;28;20693;-56
2022/05/02 02:32:37;;;;;;;13.10;9.30;;;;;;;12.17;100.00;99545.34;5008893;28;20518;-54
2022/05/02 02:35:05;;;;;;;13.43;9.03;;;;;;;12.29;100.00;99547.53;5008665;28;20280;-56
2022/05/02 02:37:31;;;;;;;9.57;8.73;;;;;;;12.20;100.00;99543.47;5008795;28;20324;-56
2022/05/02 02:39:58;;;;;;;9.90;9.00;;;;;;;12.19;100.00;99546.97;5008793;28;20198;-56
2022/05/02 02:42:25;;;;;;;11.77;10.23;;;;;;;12.16;100.00;99554.91;5008633;28;20202;-56
2022/05/02 02:44:53;;;;;;;12.37;11.17;;;;;;;12.10;100.00;99552.50;5008818;28;20209;-54
2022/05/02 02:47:21;;;;;;;10.50;9.57;;;;;;;12.11;100.00;99554.19;5008651;28;20198;-55
2022/05/02 02:49:47;;;;;;;12.70;11.53;;;;;;;12.07;100.00;99547.41;5008555;28;20581;-55
2022/05/02 02:52:14;;;;;;;11.63;10.53;;;;;;;12.11;100.00;99554.19;5008782;28;20198;-55
2022/05/02 02:54:41;;;;;;;14.87;11.40;;;;;;;12.00;100.00;99553.72;5008633;28;20237;-55
2022/05/02 02:57:08;;;;;;;14.83;10.57;;;;;;;11.99;100.00;99558.06;5008755;28;20538;-54
2022/05/02 02:59:35;;;;;;;11.47;10.30;;;;;;;12.03;100.00;99552.75;5008383;28;20285;-54
2022/05/02 03:02:07;;;;;;;13.60;12.30;;;;;;;12.11;100.00;99562.00;5007574;28;20690;-53
2022/05/02 03:07:19;;;;;;;11.77;10.77;;;;;;;12.00;100.00;99551.97;5008472;28;20209;-54
2022/05/02 03:09:46;;;;;;;14.80;11.83;;;;;;;12.04;100.00;99551.88;5008246;28;20201;-56
2022/05/02 03:12:13;;;;;;;12.10;10.90;;;;;;;12.05;100.00;99557.03;5008343;28;20194;-57
2022/05/02 03:14:40;;;;;;;12.10;10.90;;;;;;;12.13;100.00;99561.94;5008191;28;20587;-57
2022/05/02 03:17:09;;;;;;;14.30;10.10;;;;;;;12.17;100.00;99561.81;5008199;28;20312;-56
2022/05/02 03:19:36;;;;;;;10.83;9.83;;;;;;;12.26;100.00;99573.63;5008053;28;20194;-56
2022/05/02 03:22:03;;;;;;;11.40;10.30;;;;;;;12.17;100.00;99564.41;5008386;28;20698;-56
2022/05/02 03:24:29;;;;;;;10.60;9.47;;;;;;;12.26;100.00;99564.09;5007672;28;20237;-56
2022/05/02 03:26:56;;;;;;;10.33;9.33;;;;;;;12.33;100.00;99568.16;5007436;28;20218;-55
2022/05/02 03:29:23;;;;;;;10.87;8.90;;;;;;;12.30;100.00;99560.44;5007889;28;20222;-56
2022/05/02 03:31:50;;;;;;;9.77;8.73;;;;;;;12.35;100.00;99570.72;5006910;28;20222;-56
2022/05/02 03:34:19;;;;;;;11.60;9.03;;;;;;;12.48;100.00;99574.59;5007420;28;20611;-57
2022/05/02 03:36:46;;;;;;;9.93;8.93;;;;;;;12.47;100.00;99556.41;5007364;28;20236;-57
2022/05/02 03:39:13;;;;;;;10.63;9.13;;;;;;;12.61;100.00;99577.59;5007267;28;20259;-57
2022/05/02 03:41:39;;;;;;;11.87;8.97;;;;;;;12.62;100.00;99568.91;5007165;28;20229;-58
2022/05/02 03:44:07;;;;;;;13.70;9.40;;;;;;;12.63;100.00;99568.84;5006763;28;20230;-57
2022/05/02 03:46:34;;;;;;;10.77;9.67;;;;;;;12.70;100.00;99569.44;5008897;28;20217;-57
2022/05/02 03:49:01;;;;;;;11.07;9.77;;;;;;;12.85;100.00;99565.44;5046721;28;20234;-57
2022/05/02 03:51:29;;;;;;;12.40;9.33;;;;;;;12.95;100.00;99562.44;5046846;28;20223;-58
2022/05/02 03:53:56;;;;;;;10.63;9.53;;;;;;;13.08;99.99;99557.63;5046544;28;20220;-54
2022/05/02 03:56:23;;;;;;;11.43;9.60;;;;;;;13.12;99.72;99567.00;5046556;28;20238;-54
2022/05/02 03:58:51;;;;;;;11.40;8.80;;;;;;;13.66;97.11;99565.75;5046690;28;20612;-54
2022/05/02 04:01:19;;;;;;;12.17;8.83;;;;;;;14.48;91.07;99567.53;5046375;28;20220;-54
2022/05/02 04:03:46;;;;;;;15.17;9.00;;;;;;;15.36;85.30;99565.22;5046519;28;20227;-54
2022/05/02 04:06:13;;;;;;;9.30;8.17;;;;;;;16.17;78.38;99560.34;5046707;28;20221;-54
2022/05/02 04:08:42;;;;;;;9.23;8.20;;;;;;;16.82;74.17;99550.00;5044469;28;20228;-54
2022/05/02 04:11:09;;;;;;;8.37;7.57;;;;;;;17.04;71.17;99554.00;5007303;28;20205;-56
2022/05/02 04:13:35;;;;;;;8.73;7.93;;;;;;;17.83;68.03;99553.97;5007243;28;20713;-54
2022/05/02 04:16:02;;;;;;;10.17;7.50;;;;;;;18.81;63.44;99552.44;5007189;28;20232;-57
2022/05/02 04:18:29;;;;;;;8.07;7.37;;;;;;;19.51;58.95;99555.06;5007496;28;20202;-57
2022/05/02 04:20:56;;;;;;;8.55;7.65;;;;;;;20.10;55.88;99563.41;5007341;28;20285;-57
2022/05/02 04:23:23;;;;;;;9.95;7.32;;;;;;;20.89;53.70;99561.47;5007203;28;20194;-55
2022/05/02 04:25:52;;;;;;;7.57;7.00;;;;;;;21.29;51.25;99553.38;5007259;28;20232;-58
2022/05/02 04:28:19;;;;;;;8.02;7.22;;;;;;;22.40;48.05;99551.19;5007453;28;20220;-58
2022/05/02 04:30:46;;;;;;;11.02;8.38;;;;;;;23.07;45.98;99561.81;5007523;28;20201;-57
2022/05/02 04:33:13;;;;;;;9.73;6.97;;;;;;;23.56;44.56;99563.22;5007200;28;20202;-57
2022/05/02 04:35:40;;;;;;;7.30;6.60;;;;;;;23.72;44.18;99571.56;5007324;28;20198;-57
2022/05/02 04:38:07;;;;;;;7.70;7.00;;;;;;;23.39;44.03;99571.63;5007104;28;20247;-56
2022/05/02 04:40:34;;;;;;;7.38;6.78;;;;;;;22.99;44.87;99574.00;5006966;28;20206;-57
2022/05/02 04:43:02;;;;;;;8.18;6.68;;;;;;;22.95;45.12;99572.53;5009117;28;20202;-58
2022/05/02 04:45:29;;;;;;;8.27;6.20;;;;;;;23.01;44.54;99569.41;5005793;28;20208;-57
2022/05/02 04:47:57;;;;;;;6.10;5.60;;;;;;;23.11;44.44;99568.56;5006253;28;20202;-54
2022/05/02 04:50:24;;;;;;;6.43;5.85;;;;;;;23.13;44.18;99569.28;5006151;28;20209;-53
2022/05/02 04:52:51;;;;;;;6.60;6.05;;;;;;;23.65;42.62;99540.41;5006033;28;20209;-54
2022/05/02 04:55:18;;;;;;;7.60;5.90;;;;;;;22.99;43.71;99527.19;5006181;28;20194;-56
2022/05/02 04:57:45;;;;;;;6.65;6.15;;;;;;;23.24;43.19;99567.59;5006104;28;20287;-54
2022/05/02 05:00:16;;;;;;;6.65;6.00;;;;;;;23.44;42.98;99572.97;5009510;28;20205;-54
2022/05/02 05:02:43;;;;;;;6.50;5.55;;;;;;;23.39;43.12;99574.28;5014857;28;20249;-54
2022/05/02 05:05:10;;;;;;;6.40;5.85;;;;;;;23.79;41.79;99575.41;5014548;28;20196;-54
2022/05/02 05:07:38;;;;;;;5.50;5.10;;;;;;;24.45;40.81;99581.38;5010423;28;20200;-54
2022/05/02 05:10:06;;;;;;;5.47;5.07;;;;;;;24.22;40.85;99577.16;5013193;28;20688;-54
2022/05/02 05:12:38;;;;;;;6.40;5.80;;;;;;;24.06;41.33;99593.47;5014591;28;20248;-54
2022/05/02 05:18:09;;;;;;;5.32;4.93;;;;;;;24.53;40.05;99591.31;5014162;28;20220;-54
2022/05/02 05:20:49;;;;;;;5.57;5.18;;;;;;;24.48;39.96;99589.06;5013637;28;20190;-53
2022/05/02 05:23:36;;;;;;;5.80;5.00;;;;;;;25.80;37.72;99584.53;5014040;28;20302;-53
2022/05/02 05:26:26;;;;;;;5.82;5.03;;;;;;;25.93;36.78;99592.25;5020754;28;20227;-54
2022/05/02 05:29:02;;;;;;;5.15;4.85;;;;;;;24.52;39.22;99585.16;5019359;28;20207;-53
2022/05/02 05:31:35;;;;;;;6.05;5.28;;;;;;;23.04;42.04;99564.69;5022101;28;20292;-53
2022/05/02 05:34:20;;;;;;;5.18;4.78;;;;;;;23.87;41.08;99580.91;5023019;28;20189;-54
2022/05/02 05:37:09;;;;;;;5.22;4.93;;;;;;;23.75;41.08;99576.63;5018897;28;20226;-54
2022/05/02 05:39:45;;;;;;;5.28;4.88;;;;;;;23.45;41.76;99561.41;5016552;28;20193;-53
2022/05/02 05:42:18;;;;;;;5.45;4.93;;;;;;;23.39;41.62;99579.56;5012492;28;20276;-53
2022/05/02 05:44:57;;;;;;;5.68;4.90;;;;;;;22.11;44.31;99583.47;5010883;28;20201;-52
2022/05/02 05:47:42;;;;;;;5.13;4.72;;;;;;;20.55;48.53;99589.34;5013038;28;20659;-53
2022/05/02 05:50:21;;;;;;;5.38;5.00;;;;;;;19.26;53.04;99589.97;5017543;28;20193;-53
2022/05/02 05:53:02;;;;;;;7.60;5.60;;;;;;;18.43;57.67;99590.69;5017200;28;20250;-58
2022/05/02 05:55:46;;;;;;;5.65;5.00;;;;;;;18.28;59.88;99581.13;5016735;28;20198;-58
2022/05/02 05:58:21;;;;;;;5.57;5.18;;;;;;;18.40;58.45;99565.44;5016341;28;20283;-58
2022/05/02 06:00:56;;;;;;;6.22;5.57;;;;;;;18.10;60.23;99581.25;5018817;28;20201;-58
2022/05/02 06:03:26;;;;;;;6.88;5.75;;;;;;;18.01;60.68;99579.16;5012950;28;20198;-57
2022/05/02 06:05:55;;;;;;;10.57;5.90;;;;;;;17.64;62.46;99585.66;5008707;28;20247;-56
2022/05/02 06:08:23;;;;;;;6.53;5.93;;;;;;;17.33;64.20;99594.38;5022364;28;20212;-59
2022/05/02 06:10:52;;;;;;;7.10;6.23;;;;;;;17.10;65.67;99586.06;5019901;28;20710;-59
2022/05/02 06:13:20;;;;;;;9.77;6.57;;;;;;;16.78;67.89;99595.66;5017559;28;20301;-58
2022/05/02 06:18:38;;;;;;;7.47;6.43;;;;;;;16.66;69.11;99584.06;5016551;28;20202;-57
2022/05/02 06:21:08;;;;;;;7.03;6.20;;;;;;;16.34;70.22;99578.69;5017382;28;20557;-59
2022/05/02 06:23:39;;;;;;;7.20;6.33;;;;;;;16.26;72.16;99590.44;5016519;28;20202;-58
2022/05/02 06:26:07;;;;;;;7.83;6.37;;;;;;;16.45;71.60;99590.38;5017558;28;20227;-58
2022/05/02 06:28:41;;;;;;;8.53;6.07;;;;;;;16.41;71.89;99573.13;5018383;28;20197;-57
2022/05/02 06:31:14;;;;;;;8.83;6.47;;;;;;;16.24;73.13;99566.13;5017984;28;20216;-59
2022/05/02 06:33:43;;;;;;;6.87;6.13;;;;;;;16.14;73.81;99528.25;5015712;28;20259;-59
2022/05/02 06:36:45;;;;;;;7.03;6.40;;;;;;;16.53;73.49;99575.94;5016836;28;20198;-58
2022/05/02 06:39:25;;;;;;;6.53;6.03;;;;;;;16.54;73.60;99580.25;5007875;28;20193;-59
2022/05/02 06:42:03;;;;;;;10.70;5.97;;;;;;;16.65;72.67;99577.97;5017919;28;20281;-58
2022/05/02 06:44:43;;;;;;;6.73;6.10;;;;;;;16.72;72.77;99575.84;5015401;28;20193;-59
2022/05/02 06:47:17;;;;;;;6.20;5.70;;;;;;;16.80;71.06;99567.59;5024924;28;20195;-58
2022/05/02 06:49:48;;;;;;;6.30;5.67;;;;;;;17.25;68.68;99562.50;5013406;28;20216;-58
2022/05/02 06:52:24;;;;;;;5.37;4.97;;;;;;;17.35;67.25;99562.81;5007855;28;20210;-57
2022/05/02 06:55:03;;;;;;;6.63;5.63;;;;;;;16.96;69.55;99560.59;5007490;28;20232;-57
2022/05/02 06:57:47;;;;;;;6.93;5.40;;;;;;;17.12;68.80;99553.59;5007621;28;20664;-57
2022/05/02 07:00:20;;;;;;;5.63;5.20;;;;;;;16.95;67.51;99558.91;5007628;28;20229;-56
2022/05/02 07:03:20;;;;;;;5.63;5.10;;;;;;;16.39;68.68;99560.09;5007729;28;20201;-58
2022/05/02 07:06:00;;;;;;;9.33;5.47;;;;;;;16.48;69.85;99562.22;5007767;28;20824;-58
2022/05/02 07:08:30;;;;;;;6.53;5.87;;;;;;;17.11;67.63;99559.75;5017127;28;20204;-58
2022/05/02 07:11:03;;;;;;;5.23;4.80;;;;;;;17.29;66.27;99564.00;5027459;28;20204;-57
2022/05/02 07:13:54;;;;;;;5.53;4.90;;;;;;;18.20;62.70;99552.66;5021055;28;20202;-58
2022/05/02 07:16:23;;;;;;;5.13;4.83;;;;;;;19.29;58.05;99558.19;5007658;28;20198;-58
2022/05/02 07:19:14;;;;;;;8.48;5.00;;;;;;;20.73;52.72;99558.22;5007956;28;20205;-58
2022/05/02 07:21:50;;;;;;;4.88;4.53;;;;;;;20.34;51.44;99553.84;5008212;28;20598;-57
2022/05/02 07:24:31;;;;;;;5.05;4.63;;;;;;;20.49;50.98;99560.75;5008199;28;20224;-57
2022/05/02 07:27:07;;;;;;;5.93;4.72;;;;;;;20.99;48.13;99557.22;5016412;28;20189;-56
2022/05/02 07:29:35;;;;;;;5.03;4.55;;;;;;;20.86;48.43;99553.78;5014645;28;20280;-56
2022/05/02 07:32:04;;;;;;;4.65;4.25;;;;;;;20.72;48.94;99564.44;5017874;28;20710;-53
2022/05/02 07:34:32;;;;;;;4.57;4.28;;;;;;;21.00;47.79;99558.91;5018508;28;20683;-53
2022/05/02 07:36:59;;;;;;;4.63;4.20;;;;;;;21.83;45.77;99553.75;5007618;28;20257;-54
2022/05/02 07:39:31;;;;;;;4.78;4.38;;;;;;;23.06;42.88;99548.69;5007826;28;20194;-53
2022/05/02 07:42:00;;;;;;;4.85;4.45;;;;;;;22.85;42.91;99561.84;5007912;28;20198;-54
2022/05/02 07:44:32;;;;;;;5.47;5.05;;;;;;;23.22;42.19;99553.63;5014638;28;20202;-53
2022/05/02 07:47:03;;;;;;;4.68;4.38;;;;;;;23.62;41.41;99544.13;5008000;28;20204;-54
2022/05/02 07:49:34;;;;;;;5.13;4.63;;;;;;;23.25;41.98;99546.25;5007318;28;20206;-57
2022/05/02 07:52:02;;;;;;;5.03;4.63;;;;;;;23.87;41.30;99532.34;5007408;28;20194;-57
2022/05/02 07:54:36;;;;;;;5.35;4.97;;;;;;;24.09;41.16;99526.09;5016358;28;20285;-53
2022/05/02 07:57:05;;;;;;;6.47;4.50;;;;;;;24.68;40.46;99525.47;5013005;28;20611;-54
2022/05/02 07:59:36;;;;;;;5.95;4.57;;;;;;;24.83;39.67;99511.69;5007945;28;20686;-53
2022/05/02 08:02:04;;;;;;;5.20;4.78;;;;;;;23.97;40.89;99524.47;5007618;28;20281;-55
2022/05/02 08:04:31;;;;;;;5.85;5.25;;;;;;;23.17;43.20;99503.66;5007342;28;20202;-54
2022/05/02 08:07:06;;;;;;;5.63;5.13;;;;;;;23.02;44.15;99492.53;5007339;28;20210;-54
2022/05/02 08:09:58;;;;;;;5.45;4.95;;;;;;;22.87;43.74;99480.50;5007455;28;20198;-52
2022/05/02 08:12:29;;;;;;;5.32;4.82;;;;;;;23.20;41.77;99453.13;5007589;28;20661;-54
2022/05/02 08:15:03;;;;;;;5.63;4.65;;;;;;;22.68;43.21;99478.47;5007434;28;20194;-54
2022/05/02 08:17:53;;;;;;;5.10;4.78;;;;;;;23.10;42.75;99466.28;5007277;28;20229;-52
2022/05/02 08:20:27;;;;;;;7.78;4.75;;;;;;;22.84;42.00;99477.25;5007723;28;20293;-53
2022/05/02 08:29:03;;;;;;;5.05;3.47;;;;;;;22.81;40.39;99473.03;5007025;28;20197;-53
2022/05/02 08:31:52;;;;;;;3.75;3.45;;;;;;;23.22;38.19;99469.72;5007058;28;20649;-53
2022/05/02 08:34:30;;;;;;;5.65;3.65;;;;;;;22.68;37.53;99482.91;5007428;28;20206;-54
2022/05/02 08:37:11;;;;;;;5.35;2.80;;;;;;;22.39;37.81;99474.59;5006819;28;20201;-52
2022/05/02 08:39:47;;;;;;;3.08;2.88;;;;;;;21.84;39.31;99477.97;5006930;28;20210;-53
2022/05/02 08:42:55;;;;;;;2.90;2.72;;;;;;;21.85;40.16;99463.81;5007015;28;20293;-53
2022/05/02 08:45:49;;;;;;;3.50;3.20;;;;;;;21.99;40.44;99466.28;4990114;28;20199;-53
2022/05/02 08:48:49;;;;;;;7.10;3.25;;;;;;;21.50;41.24;99454.09;5006860;28;20648;-53
2022/05/02 08:51:54;;;;;;;3.72;3.42;;;;;;;21.43;41.33;99458.16;5007056;28;20630;-58
2022/05/02 08:54:56;;;;;;;3.90;3.63;;;;;;;21.87;41.28;99462.75;5006684;28;20289;-56
2022/05/02 08:57:50;;;;;;;3.88;3.30;;;;;;;22.18;40.26;99463.06;5010653;28;20243;-56
2022/05/02 09:00:28;;;;;;;4.07;3.78;;;;;;;22.23;40.47;99455.63;5006511;28;20284;-57
2022/05/02 09:03:45;;;;;;;6.35;4.10;;;;;;;22.72;41.04;99450.78;5010261;28;20201;-53
2022/05/02 09:06:44;;;;;;;5.85;3.90;;;;;;;22.76;40.98;99448.78;5071036;28;20571;-57
2022/05/02 09:09:45;;;;;;;4.47;3.92;;;;;;;23.25;40.41;99442.16;5070894;28;20677;-56
2022/05/02 09:12:47;;;;;;;4.68;4.28;;;;;;;23.11;40.14;99452.06;5012971;28;20202;-57
2022/05/02 09:15:40;;;;;;;5.18;4.53;;;;;;;22.88;40.96;99439.84;5026613;28;20197;-56
2022/05/02 09:18:43;;;;;;;6.97;4.60;;;;;;;22.65;41.48;99449.59;5010026;28;20734;-57
2022/05/02 09:21:24;;;;;;;5.72;4.22;;;;;;;21.99;43.21;99437.22;5009905;28;20202;-53
2022/05/02 09:24:26;;;;;;;6.88;4.50;;;;;;;22.15;42.91;99437.69;5009849;28;20210;-53
2022/05/02 09:27:35;;;;;;;5.25;4.22;;;;;;;22.43;42.70;99445.16;5010018;28;20639;-53
2022/05/02 09:30:26;;;;;;;4.82;4.43;;;;;;;23.07;41.62;99433.91;5009747;28;20252;-52
2022/05/02 09:33:05;;;;;;;5.32;4.20;;;;;;;23.32;41.23;99422.13;5009780;28;20198;-53
2022/05/02 09:35:34;;;;;;;3.92;3.60;;;;;;;23.42;40.02;99418.59;5009653;28;20202;-52
2022/05/02 09:38:19;;;;;;;4.50;4.15;;;;;;;22.95;40.14;99440.19;5009630;28;20229;-53
2022/05/02 09:40:47;;;;;;;5.68;3.95;;;;;;;22.54;40.50;99440.81;5009602;28;20288;-53
2022/05/02 09:49:33;;;;;;;4.13;3.78;;;;;;;22.93;39.77;99428.88;5012105;28;20204;-52
2022/05/02 09:49:37;;;;;;;4.45;4.15;;;;;;;23.57;38.21;99435.06;5009663;28;20190;-53
2022/05/02 09:52:09;;;;;;;3.83;3.53;;;;;;;22.56;39.73;99401.88;5009563;28;20202;-53
2022/05/02 09:57:42;;;;;;;3.45;3.25;;;;;;;23.30;38.68;99414.31;5009434;28;20221;-55
2022/05/02 10:03:09;;;;;;;3.08;2.80;;;;;;;24.22;34.69;99407.41;5010476;28;20247;-54
2022/05/02 10:05:40;;;;;;;4.47;2.80;;;;;;;23.84;36.59;99406.22;5009317;28;20587;-54
2022/05/02 10:08:20;;;;;;;3.05;2.72;;;;;;;23.42;37.93;99399.22;5009436;28;20200;-54
2022/05/02 10:10:56;;;;;;;5.38;2.80;;;;;;;23.60;37.42;99355.28;5008626;28;20234;-54
2022/05/02 10:13:33;;;;;;;3.58;3.30;;;;;;;23.72;37.49;99393.16;5009270;28;20201;-54
2022/05/02 10:16:12;;;;;;;3.35;3.15;;;;;;;23.27;38.81;99392.53;5009451;28;20201;-53
2022/05/02 10:18:58;;;;;;;9.00;3.03;;;;;;;22.14;40.86;99379.66;5009184;28;20233;-54
2022/05/02 10:21:54;;;;;;;5.72;3.10;;;;;;;21.90;41.16;99371.78;5019616;28;20293;-54
2022/05/02 10:24:39;;;;;;;4.88;3.70;;;;;;;;;;5008957;28;20277;-53
2022/05/02 10:27:14;;;;;;;3.10;2.90;;;;;;;21.53;40.42;99365.88;5008945;28;20672;-54
2022/05/02 10:30:03;;;;;;;4.25;3.08;;;;;;;21.43;40.73;99355.19;5008704;28;20671;-54
2022/05/02 10:32:43;;;;;;;2.88;2.67;;;;;;;21.47;40.98;99353.97;5008864;28;20308;-54
2022/05/02 10:35:14;;;;;;;3.83;3.08;;;;;;;21.59;39.84;99355.69;5008451;28;20194;-54
2022/05/02 10:37:42;;;;;;;2.95;2.35;;;;;;;21.49;39.55;99348.56;5008501;28;20226;-53
2022/05/02 10:40:12;;;;;;;4.13;2.85;;;;;;;21.54;40.27;99342.00;5008573;28;20202;-54
2022/05/02 10:42:46;;;;;;;3.40;3.20;;;;;;;21.60;40.73;99332.75;5008826;28;20735;-54
2022/05/02 10:45:15;;;;;;;2.78;2.58;;;;;;;21.13;41.00;99317.84;5008646;28;20597;-54
2022/05/02 10:47:46;;;;;;;2.70;2.50;;;;;;;20.97;40.75;99319.03;5008570;28;20198;-54
2022/05/02 10:50:22;;;;;;;3.38;2.40;;;;;;;20.73;40.95;99322.63;5008706;28;20194;-54
2022/05/02 10:53:08;;;;;;;3.13;2.90;;;;;;;20.10;41.31;99332.38;5008812;28;20200;-54
2022/05/02 10:55:45;;;;;;;2.92;2.72;;;;;;;19.91;41.44;99324.09;5008915;28;20208;-53
2022/05/02 10:58:13;;;;;;;4.88;3.63;;;;;;;20.17;42.03;99317.00;5008722;28;20229;-54
2022/05/02 11:00:54;;;;;;;4.85;2.97;;;;;;;20.02;41.41;99313.66;5008624;28;20213;-54
2022/05/02 11:03:33;;;;;;;5.95;5.35;;;;;;;20.08;40.85;99289.50;5008461;28;20202;-54
2022/05/02 11:06:10;;;;;;;8.82;7.05;;;;;;;20.62;40.92;99328.69;5008254;28;20194;-53
2022/05/02 11:08:45;;;;;;;13.88;9.02;;;;;;;20.68;40.75;99320.31;5008575;28;20638;-54
2022/05/02 11:11:23;;;;;;;5.10;4.53;;;;;;;20.87;40.69;99311.91;5008269;28;20205;-54
2022/05/02 11:13:58;;;;;;;3.45;3.25;;;;;;;20.80;40.36;99303.59;5008291;28;20204;-54
2022/05/02 11:16:28;;;;;;;4.00;3.55;;;;;;;20.80;40.63;99308.84;5008077;28;20198;-54
2022/05/02 11:22:19;;;;;;;3.58;3.38;;;;;;;20.73;40.29;99325.25;5007919;28;20206;-53
2022/05/02 11:24:53;;;;;;;4.07;3.78;;;;;;;20.42;41.54;99314.31;5007440;28;20267;-55
2022/05/02 11:27:56;;;;;;;3.83;3.45;;;;;;;20.26;41.22;99330.34;5008377;28;20224;-56
2022/05/02 11:30:24;;;;;;;3.63;3.38;;;;;;;20.20;42.04;99311.50;5048273;28;20284;-57
2022/05/02 11:33:10;;;;;;;6.20;5.70;;;;;;;20.39;42.21;99325.06;5015072;28;20205;-57
2022/05/02 11:35:38;;;;;;;5.07;4.72;;;;;;;20.43;42.54;99330.97;5009375;28;20209;-56
2022/05/02 11:38:24;;;;;;;3.47;3.25;;;;;;;20.29;42.12;99316.97;5007862;28;20231;-56
2022/05/02 11:40:54;;;;;;;4.30;3.10;;;;;;;20.18;42.66;99311.63;5006532;28;20297;-54
2022/05/02 11:43:23;;;;;;;3.28;2.97;;;;;;;20.20;41.10;99314.97;5007592;28;20198;-53
2022/05/02 11:46:01;;;;;;;3.50;3.28;;;;;;;20.21;41.56;99321.06;5007942;28;20698;-54
2022/05/02 11:48:52;;;;;;;3.55;3.35;;;;;;;20.34;40.42;99323.69;5007889;28;20582;-54
2022/05/02 11:51:38;;;;;;;6.35;3.50;;;;;;;20.41;39.35;99330.25;5007617;28;20655;-54
2022/05/02 11:54:13;;;;;;;4.15;3.75;;;;;;;20.54;39.96;99331.03;5008114;28;20735;-57
2022/05/02 11:56:46;;;;;;;3.50;3.28;;;;;;;20.46;40.85;99310.50;5007529;28;20284;-56
2022/05/02 11:59:18;;;;;;;5.05;3.70;;;;;;;20.41;42.16;99330.25;5007591;28;20222;-56
2022/05/02 12:01:50;;;;;;;3.45;3.25;;;;;;;20.08;44.00;99325.56;5007509;28;20617;-57
2022/05/02 12:04:21;;;;;;;3.20;3.00;;;;;;;19.54;45.51;99324.00;5007344;28;20583;-56
2022/05/02 12:07:00;;;;;;;4.38;3.53;;;;;;;19.24;45.89;99315.53;5007326;28;20198;-55
2022/05/02 12:09:32;;;;;;;3.45;3.25;;;;;;;19.32;46.18;99313.22;5007430;28;20198;-56
2022/05/02 12:12:07;;;;;;;4.53;3.40;;;;;;;19.17;45.14;99314.28;5007513;28;20201;-56
2022/05/02 12:14:34;;;;;;;3.70;3.40;;;;;;;19.17;44.77;99319.53;5007139;28;20292;-57
2022/05/02 12:17:09;;;;;;;7.07;3.38;;;;;;;19.17;45.07;99309.00;5007490;28;20198;-56
2022/05/02 12:19:37;;;;;;;3.35;3.15;;;;;;;19.10;45.25;99310.34;5007246;28;20312;-56
2022/05/02 12:22:08;;;;;;;5.10;3.40;;;;;;;19.02;44.69;99304.78;5007701;28;20198;-57
2022/05/02 12:24:38;;;;;;;4.45;4.10;;;;;;;19.02;45.52;99300.34;5007242;28;20204;-55
2022/05/02 12:27:08;;;;;;;3.67;3.47;;;;;;;18.99;44.44;99287.41;5007164;28;20198;-55
2022/05/02 12:29:37;;;;;;;5.07;3.80;;;;;;;18.97;45.16;99296.31;5007494;28;20190;-55
2022/05/02 12:32:07;;;;;;;4.90;4.50;;;;;;;18.92;45.74;99282.66;5007228;28;20564;-55